Kansas City, Missouri
Current Conditions -  °F | °C
As of 11:54 PM on Tuesday 25 Nov 2014 (Local Time) from KMKC Reporting Station
Overcast Overcast  
Wind Chill: 34°   Ceiling: 8500
Heat Index: 41°   Visibility: 10mi
Dew Point: 20°   Wind: 12mph
Humidity: 43%   Direction: 180°S
Pressure: 29.98"   Gusts: NA
Location:  39.1°N, 94.58°W
Report Text: KMKC 260554Z 18010KT 10SM OVC085 05/M07 A2998 RMK AO2 SLP157 T00501067 10050 20033 400671044 58022
Loading
Personal Weather Stations






























Interactive Weather Map New forecast layout! Learn more

10-Day Weather Forecast

Advertisements
Track Severe Weather on mobile